sensor_id;sensor_type;location;lat;lon;timestamp;temperature;humidity
9975;DHT22;5028;50.974;4.968;2022-07-23T00:01:16;16.40;99.90
9975;DHT22;5028;50.974;4.968;2022-07-23T00:03:54;16.40;99.90
9975;DHT22;5028;50.974;4.968;2022-07-23T00:06:22;16.30;99.90
9975;DHT22;5028;50.974;4.968;2022-07-23T00:08:58;16.30;99.90
9975;DHT22;5028;50.974;4.968;2022-07-23T00:11:26;16.30;99.90
9975;DHT22;5028;50.974;4.968;2022-07-23T00:14:01;16.20;99.90
9975;DHT22;5028;50.974;4.968;2022-07-23T00:16:29;16.20;99.90
9975;DHT22;5028;50.974;4.968;2022-07-23T00:19:04;16.20;99.90
9975;DHT22;5028;50.974;4.968;2022-07-23T00:21:32;16.20;99.90
9975;DHT22;5028;50.974;4.968;2022-07-23T00:24:09;16.20;99.90
9975;DHT22;5028;50.974;4.968;2022-07-23T00:26:37;16.10;99.90
9975;DHT22;5028;50.974;4.968;2022-07-23T00:29:11;16.10;99.90
9975;DHT22;5028;50.974;4.968;2022-07-23T00:31:40;16.10;99.90
9975;DHT22;5028;50.974;4.968;2022-07-23T00:34:14;16.00;99.90
9975;DHT22;5028;50.974;4.968;2022-07-23T00:36:42;16.10;99.90
9975;DHT22;5028;50.974;4.968;2022-07-23T00:39:19;16.00;99.90
9975;DHT22;5028;50.974;4.968;2022-07-23T00:41:54;16.00;99.90
9975;DHT22;5028;50.974;4.968;2022-07-23T00:44:24;16.00;99.90
9975;DHT22;5028;50.974;4.968;2022-07-23T00:47:18;16.00;99.90
9975;DHT22;5028;50.974;4.968;2022-07-23T00:49:46;16.00;99.90
9975;DHT22;5028;50.974;4.968;2022-07-23T00:52:20;16.00;99.90
9975;DHT22;5028;50.974;4.968;2022-07-23T00:54:50;16.00;99.90
9975;DHT22;5028;50.974;4.968;2022-07-23T00:57:25;15.90;99.90
9975;DHT22;5028;50.974;4.968;2022-07-23T00:59:55;15.90;99.90
9975;DHT22;5028;50.974;4.968;2022-07-23T01:02:31;15.90;99.90
9975;DHT22;5028;50.974;4.968;2022-07-23T01:05:00;15.90;99.90
9975;DHT22;5028;50.974;4.968;2022-07-23T01:07:34;15.90;99.90
9975;DHT22;5028;50.974;4.968;2022-07-23T01:10:06;15.80;99.90
9975;DHT22;5028;50.974;4.968;2022-07-23T01:13:04;15.80;99.90
9975;DHT22;5028;50.974;4.968;2022-07-23T01:15:34;15.70;99.90
9975;DHT22;5028;50.974;4.968;2022-07-23T01:18:09;15.70;99.90
9975;DHT22;5028;50.974;4.968;2022-07-23T01:20:39;15.70;99.90
9975;DHT22;5028;50.974;4.968;2022-07-23T01:23:15;15.70;99.90
9975;DHT22;5028;50.974;4.968;2022-07-23T01:25:52;15.60;99.90
9975;DHT22;5028;50.974;4.968;2022-07-23T01:28:27;15.60;99.90
9975;DHT22;5028;50.974;4.968;2022-07-23T01:30:55;15.60;99.90
9975;DHT22;5028;50.974;4.968;2022-07-23T01:33:30;15.60;99.90
9975;DHT22;5028;50.974;4.968;2022-07-23T01:35:58;15.60;99.90
9975;DHT22;5028;50.974;4.968;2022-07-23T01:38:35;15.60;99.90
9975;DHT22;5028;50.974;4.968;2022-07-23T01:41:03;15.60;99.90
9975;DHT22;5028;50.974;4.968;2022-07-23T01:43:39;15.60;99.90
9975;DHT22;5028;50.974;4.968;2022-07-23T01:46:20;15.60;99.90
9975;DHT22;5028;50.974;4.968;2022-07-23T01:48:54;15.60;99.90
9975;DHT22;5028;50.974;4.968;2022-07-23T01:51:23;15.60;99.90
9975;DHT22;5028;50.974;4.968;2022-07-23T01:53:59;15.60;99.90
9975;DHT22;5028;50.974;4.968;2022-07-23T01:56:27;15.60;99.90
9975;DHT22;5028;50.974;4.968;2022-07-23T01:59:02;15.50;99.90
9975;DHT22;5028;50.974;4.968;2022-07-23T02:01:30;15.50;99.90
9975;DHT22;5028;50.974;4.968;2022-07-23T02:04:05;15.50;99.90
9975;DHT22;5028;50.974;4.968;2022-07-23T02:06:33;15.50;99.90
9975;DHT22;5028;50.974;4.968;2022-07-23T02:09:10;15.40;99.90
9975;DHT22;5028;50.974;4.968;2022-07-23T02:11:38;15.40;99.90
9975;DHT22;5028;50.974;4.968;2022-07-23T02:14:12;15.40;99.90
9975;DHT22;5028;50.974;4.968;2022-07-23T02:16:40;15.40;99.90
9975;DHT22;5028;50.974;4.968;2022-07-23T02:19:15;15.30;99.90
9975;DHT22;5028;50.974;4.968;2022-07-23T02:21:44;15.30;99.90
9975;DHT22;5028;50.974;4.968;2022-07-23T02:24:20;15.30;99.90
9975;DHT22;5028;50.974;4.968;2022-07-23T02:26:48;15.30;99.90
9975;DHT22;5028;50.974;4.968;2022-07-23T02:29:23;15.30;99.90
9975;DHT22;5028;50.974;4.968;2022-07-23T02:31:51;15.20;99.90
9975;DHT22;5028;50.974;4.968;2022-07-23T02:34:34;15.20;99.90
9975;DHT22;5028;50.974;4.968;2022-07-23T02:37:17;15.20;99.90
9975;DHT22;5028;50.974;4.968;2022-07-23T02:39:54;15.20;99.90
9975;DHT22;5028;50.974;4.968;2022-07-23T02:42:22;15.10;99.90
9975;DHT22;5028;50.974;4.968;2022-07-23T02:44:57;15.10;99.90
9975;DHT22;5028;50.974;4.968;2022-07-23T02:47:38;15.10;99.90
9975;DHT22;5028;50.974;4.968;2022-07-23T02:50:12;15.10;99.90
9975;DHT22;5028;50.974;4.968;2022-07-23T02:52:40;15.10;99.90
9975;DHT22;5028;50.974;4.968;2022-07-23T02:55:17;15.10;99.90
9975;DHT22;5028;50.974;4.968;2022-07-23T02:57:45;15.10;99.90
9975;DHT22;5028;50.974;4.968;2022-07-23T03:00:19;15.10;99.90
9975;DHT22;5028;50.974;4.968;2022-07-23T03:02:47;15.10;99.90
9975;DHT22;5028;50.974;4.968;2022-07-23T03:05:22;15.20;99.90
9975;DHT22;5028;50.974;4.968;2022-07-23T03:07:50;15.10;99.90
9975;DHT22;5028;50.974;4.968;2022-07-23T03:10:27;15.10;99.90
9975;DHT22;5028;50.974;4.968;2022-07-23T03:12:55;15.00;99.90
9975;DHT22;5028;50.974;4.968;2022-07-23T03:15:29;15.00;99.90
9975;DHT22;5028;50.974;4.968;2022-07-23T03:17:58;15.00;99.90
9975;DHT22;5028;50.974;4.968;2022-07-23T03:20:32;15.00;99.90
9975;DHT22;5028;50.974;4.968;2022-07-23T03:23:00;15.00;99.90
9975;DHT22;5028;50.974;4.968;2022-07-23T03:25:37;14.90;99.90
9975;DHT22;5028;50.974;4.968;2022-07-23T03:28:05;14.90;99.90
9975;DHT22;5028;50.974;4.968;2022-07-23T03:30:39;14.80;99.90
9975;DHT22;5028;50.974;4.968;2022-07-23T03:33:08;14.80;99.90
9975;DHT22;5028;50.974;4.968;2022-07-23T03:35:43;14.70;99.90
9975;DHT22;5028;50.974;4.968;2022-07-23T03:38:14;14.70;99.90
9975;DHT22;5028;50.974;4.968;2022-07-23T03:40:50;14.70;99.90
9975;DHT22;5028;50.974;4.968;2022-07-23T03:43:19;14.70;99.90
9975;DHT22;5028;50.974;4.968;2022-07-23T03:45:53;14.70;99.90
9975;DHT22;5028;50.974;4.968;2022-07-23T03:48:28;14.70;99.90
9975;DHT22;5028;50.974;4.968;2022-07-23T03:51:03;14.70;99.90
9975;DHT22;5028;50.974;4.968;2022-07-23T03:53:31;14.60;99.90
9975;DHT22;5028;50.974;4.968;2022-07-23T03:56:07;14.60;99.90
9975;DHT22;5028;50.974;4.968;2022-07-23T03:58:35;14.60;99.90
9975;DHT22;5028;50.974;4.968;2022-07-23T04:01:10;14.50;99.90
9975;DHT22;5028;50.974;4.968;2022-07-23T04:03:39;14.50;99.90
9975;DHT22;5028;50.974;4.968;2022-07-23T04:06:13;14.60;99.90
9975;DHT22;5028;50.974;4.968;2022-07-23T04:08:42;14.60;99.90
9975;DHT22;5028;50.974;4.968;2022-07-23T04:11:18;14.50;99.90
9975;DHT22;5028;50.974;4.968;2022-07-23T04:13:46;14.50;99.90
9975;DHT22;5028;50.974;4.968;2022-07-23T04:16:21;14.50;99.90
9975;DHT22;5028;50.974;4.968;2022-07-23T04:18:49;14.40;99.90
9975;DHT22;5028;50.974;4.968;2022-07-23T04:21:24;14.50;99.90
9975;DHT22;5028;50.974;4.968;2022-07-23T04:23:52;14.50;99.90
9975;DHT22;5028;50.974;4.968;2022-07-23T04:26:28;14.60;99.90
9975;DHT22;5028;50.974;4.968;2022-07-23T04:28:56;14.60;99.90
9975;DHT22;5028;50.974;4.968;2022-07-23T04:31:31;14.60;99.90
9975;DHT22;5028;50.974;4.968;2022-07-23T04:34:03;14.60;99.90
9975;DHT22;5028;50.974;4.968;2022-07-23T04:36:40;14.60;99.90
9975;DHT22;5028;50.974;4.968;2022-07-23T04:39:08;14.60;99.90
9975;DHT22;5028;50.974;4.968;2022-07-23T04:41:44;14.60;99.90
9975;DHT22;5028;50.974;4.968;2022-07-23T04:44:12;14.60;99.90
9975;DHT22;5028;50.974;4.968;2022-07-23T04:46:53;14.60;99.90
9975;DHT22;5028;50.974;4.968;2022-07-23T04:49:21;14.70;99.90
9975;DHT22;5028;50.974;4.968;2022-07-23T04:51:56;14.70;99.90
9975;DHT22;5028;50.974;4.968;2022-07-23T04:54:25;14.70;99.90
9975;DHT22;5028;50.974;4.968;2022-07-23T04:57:01;14.80;99.90
9975;DHT22;5028;50.974;4.968;2022-07-23T04:59:30;14.70;99.90
9975;DHT22;5028;50.974;4.968;2022-07-23T05:02:04;14.80;99.90
9975;DHT22;5028;50.974;4.968;2022-07-23T05:04:33;14.80;99.90
9975;DHT22;5028;50.974;4.968;2022-07-23T05:07:08;14.90;99.90
9975;DHT22;5028;50.974;4.968;2022-07-23T05:09:36;14.90;99.90
9975;DHT22;5028;50.974;4.968;2022-07-23T05:12:12;14.90;99.90
9975;DHT22;5028;50.974;4.968;2022-07-23T05:14:40;15.00;99.90
9975;DHT22;5028;50.974;4.968;2022-07-23T05:17:14;15.00;99.90
9975;DHT22;5028;50.974;4.968;2022-07-23T05:19:43;15.00;99.90
9975;DHT22;5028;50.974;4.968;2022-07-23T05:22:25;15.00;99.90
9975;DHT22;5028;50.974;4.968;2022-07-23T05:24:54;15.00;99.90
9975;DHT22;5028;50.974;4.968;2022-07-23T05:27:30;15.10;99.90
9975;DHT22;5028;50.974;4.968;2022-07-23T05:29:58;15.20;99.90
9975;DHT22;5028;50.974;4.968;2022-07-23T05:32:33;15.30;99.90
9975;DHT22;5028;50.974;4.968;2022-07-23T05:35:04;15.30;99.90
9975;DHT22;5028;50.974;4.968;2022-07-23T05:37:39;15.30;99.90
9975;DHT22;5028;50.974;4.968;2022-07-23T05:40:09;15.40;99.90
9975;DHT22;5028;50.974;4.968;2022-07-23T05:42:45;15.40;99.90
9975;DHT22;5028;50.974;4.968;2022-07-23T05:45:13;15.50;99.90
9975;DHT22;5028;50.974;4.968;2022-07-23T05:47:48;15.50;99.90
9975;DHT22;5028;50.974;4.968;2022-07-23T05:50:17;15.50;99.90
9975;DHT22;5028;50.974;4.968;2022-07-23T05:52:51;15.60;99.90
9975;DHT22;5028;50.974;4.968;2022-07-23T05:55:20;15.70;99.90
9975;DHT22;5028;50.974;4.968;2022-07-23T05:57:56;15.80;99.90
9975;DHT22;5028;50.974;4.968;2022-07-23T06:00:25;16.00;99.90
9975;DHT22;5028;50.974;4.968;2022-07-23T06:03:01;16.30;99.90
9975;DHT22;5028;50.974;4.968;2022-07-23T06:05:29;16.50;99.90
9975;DHT22;5028;50.974;4.968;2022-07-23T06:08:04;16.70;99.90
9975;DHT22;5028;50.974;4.968;2022-07-23T06:10:32;17.00;99.90
9975;DHT22;5028;50.974;4.968;2022-07-23T06:13:08;17.20;99.90
9975;DHT22;5028;50.974;4.968;2022-07-23T06:15:36;17.30;99.90
9975;DHT22;5028;50.974;4.968;2022-07-23T06:18:11;17.40;99.90
9975;DHT22;5028;50.974;4.968;2022-07-23T06:20:39;17.50;99.90
9975;DHT22;5028;50.974;4.968;2022-07-23T06:23:19;17.60;99.90
9975;DHT22;5028;50.974;4.968;2022-07-23T06:25:47;17.60;99.90
9975;DHT22;5028;50.974;4.968;2022-07-23T06:28:23;17.50;99.90
9975;DHT22;5028;50.974;4.968;2022-07-23T06:30:51;17.40;99.90
9975;DHT22;5028;50.974;4.968;2022-07-23T06:33:27;17.50;99.90
9975;DHT22;5028;50.974;4.968;2022-07-23T06:35:55;17.60;99.90
9975;DHT22;5028;50.974;4.968;2022-07-23T06:38:32;17.60;99.90
9975;DHT22;5028;50.974;4.968;2022-07-23T06:41:01;17.60;99.90
9975;DHT22;5028;50.974;4.968;2022-07-23T06:43:37;17.50;99.90
9975;DHT22;5028;50.974;4.968;2022-07-23T06:46:05;17.70;99.90
9975;DHT22;5028;50.974;4.968;2022-07-23T06:48:47;17.70;99.90
9975;DHT22;5028;50.974;4.968;2022-07-23T06:51:15;17.80;99.90
9975;DHT22;5028;50.974;4.968;2022-07-23T06:53:50;17.90;99.90
9975;DHT22;5028;50.974;4.968;2022-07-23T06:56:18;17.90;99.90
9975;DHT22;5028;50.974;4.968;2022-07-23T06:58:54;18.10;99.90
9975;DHT22;5028;50.974;4.968;2022-07-23T07:05:13;18.10;99.90
9975;DHT22;5028;50.974;4.968;2022-07-23T07:07:48;18.20;99.90
9975;DHT22;5028;50.974;4.968;2022-07-23T07:10:16;18.20;99.90
9975;DHT22;5028;50.974;4.968;2022-07-23T07:12:53;18.30;99.90
9975;DHT22;5028;50.974;4.968;2022-07-23T07:15:23;18.40;99.90
9975;DHT22;5028;50.974;4.968;2022-07-23T07:17:58;18.50;99.90
9975;DHT22;5028;50.974;4.968;2022-07-23T07:20:26;18.60;99.90
9975;DHT22;5028;50.974;4.968;2022-07-23T07:23:06;18.70;99.90
9975;DHT22;5028;50.974;4.968;2022-07-23T07:25:34;18.80;99.90
9975;DHT22;5028;50.974;4.968;2022-07-23T07:28:09;18.90;99.90
9975;DHT22;5028;50.974;4.968;2022-07-23T07:30:39;19.00;99.90
9975;DHT22;5028;50.974;4.968;2022-07-23T07:33:14;19.10;99.90
9975;DHT22;5028;50.974;4.968;2022-07-23T07:35:42;19.20;99.90
9975;DHT22;5028;50.974;4.968;2022-07-23T07:38:17;19.30;99.90
9975;DHT22;5028;50.974;4.968;2022-07-23T07:40:45;19.30;99.90
9975;DHT22;5028;50.974;4.968;2022-07-23T07:43:20;19.40;99.90
9975;DHT22;5028;50.974;4.968;2022-07-23T07:45:56;19.50;99.90
9975;DHT22;5028;50.974;4.968;2022-07-23T07:48:31;19.60;99.90
9975;DHT22;5028;50.974;4.968;2022-07-23T07:50:59;19.60;99.90
9975;DHT22;5028;50.974;4.968;2022-07-23T07:53:34;19.60;99.90
9975;DHT22;5028;50.974;4.968;2022-07-23T07:56:04;19.60;99.90
9975;DHT22;5028;50.974;4.968;2022-07-23T07:58:39;19.70;99.90
9975;DHT22;5028;50.974;4.968;2022-07-23T08:01:09;19.80;99.90
9975;DHT22;5028;50.974;4.968;2022-07-23T08:03:45;19.90;99.90
9975;DHT22;5028;50.974;4.968;2022-07-23T08:06:13;20.00;99.90
9975;DHT22;5028;50.974;4.968;2022-07-23T08:08:51;20.00;99.90
9975;DHT22;5028;50.974;4.968;2022-07-23T08:11:19;20.30;99.90
9975;DHT22;5028;50.974;4.968;2022-07-23T08:13:54;20.40;99.90
9975;DHT22;5028;50.974;4.968;2022-07-23T08:16:23;20.40;99.90
9975;DHT22;5028;50.974;4.968;2022-07-23T08:19:18;20.50;99.90
9975;DHT22;5028;50.974;4.968;2022-07-23T08:21:46;21.00;99.90
9975;DHT22;5028;50.974;4.968;2022-07-23T08:24:23;21.00;99.90
9975;DHT22;5028;50.974;4.968;2022-07-23T08:26:51;20.90;99.90
9975;DHT22;5028;50.974;4.968;2022-07-23T08:29:26;21.00;99.90
9975;DHT22;5028;50.974;4.968;2022-07-23T08:31:55;21.20;99.90
9975;DHT22;5028;50.974;4.968;2022-07-23T08:34:50;21.20;99.90
9975;DHT22;5028;50.974;4.968;2022-07-23T08:37:18;21.60;99.90
9975;DHT22;5028;50.974;4.968;2022-07-23T08:39:54;21.70;99.90
9975;DHT22;5028;50.974;4.968;2022-07-23T08:42:23;22.00;99.90
9975;DHT22;5028;50.974;4.968;2022-07-23T08:44:58;22.10;99.90
9975;DHT22;5028;50.974;4.968;2022-07-23T08:47:41;22.00;99.90
9975;DHT22;5028;50.974;4.968;2022-07-23T08:50:20;22.20;99.90
9975;DHT22;5028;50.974;4.968;2022-07-23T08:52:49;22.20;99.90
9975;DHT22;5028;50.974;4.968;2022-07-23T08:55:25;22.40;99.90
9975;DHT22;5028;50.974;4.968;2022-07-23T08:57:53;22.70;99.90
9975;DHT22;5028;50.974;4.968;2022-07-23T09:00:29;22.80;99.90
9975;DHT22;5028;50.974;4.968;2022-07-23T09:02:58;22.90;99.90
9975;DHT22;5028;50.974;4.968;2022-07-23T09:05:33;22.70;99.90
9975;DHT22;5028;50.974;4.968;2022-07-23T09:08:09;22.80;99.90
9975;DHT22;5028;50.974;4.968;2022-07-23T09:10:47;22.90;99.90
9975;DHT22;5028;50.974;4.968;2022-07-23T09:13:34;23.00;99.90
9975;DHT22;5028;50.974;4.968;2022-07-23T09:16:11;23.20;99.90
9975;DHT22;5028;50.974;4.968;2022-07-23T09:18:44;23.70;99.90
9975;DHT22;5028;50.974;4.968;2022-07-23T09:21:22;23.70;99.90
9975;DHT22;5028;50.974;4.968;2022-07-23T09:23:56;23.80;99.90
9975;DHT22;5028;50.974;4.968;2022-07-23T09:26:34;24.10;99.90
9975;DHT22;5028;50.974;4.968;2022-07-23T09:29:06;24.40;99.90
9975;DHT22;5028;50.974;4.968;2022-07-23T09:31:46;24.70;99.90
9975;DHT22;5028;50.974;4.968;2022-07-23T09:34:21;24.70;99.90
9975;DHT22;5028;50.974;4.968;2022-07-23T09:36:58;24.70;99.90
9975;DHT22;5028;50.974;4.968;2022-07-23T09:39:36;25.00;99.90
9975;DHT22;5028;50.974;4.968;2022-07-23T09:42:15;25.30;99.90
9975;DHT22;5028;50.974;4.968;2022-07-23T09:44:45;25.30;99.90
9975;DHT22;5028;50.974;4.968;2022-07-23T09:47:22;25.40;99.90
9975;DHT22;5028;50.974;4.968;2022-07-23T09:50:00;25.50;99.90
9975;DHT22;5028;50.974;4.968;2022-07-23T09:52:44;25.90;99.90
9975;DHT22;5028;50.974;4.968;2022-07-23T09:55:13;26.10;99.90
9975;DHT22;5028;50.974;4.968;2022-07-23T09:57:48;26.30;99.90
9975;DHT22;5028;50.974;4.968;2022-07-23T10:00:18;26.40;99.90
9975;DHT22;5028;50.974;4.968;2022-07-23T10:02:53;26.30;99.90
9975;DHT22;5028;50.974;4.968;2022-07-23T10:05:24;26.10;99.90
9975;DHT22;5028;50.974;4.968;2022-07-23T10:08:01;25.70;99.90
9975;DHT22;5028;50.974;4.968;2022-07-23T10:10:30;25.70;99.90
9975;DHT22;5028;50.974;4.968;2022-07-23T10:13:06;25.90;99.90
9975;DHT22;5028;50.974;4.968;2022-07-23T10:15:51;26.00;99.90
9975;DHT22;5028;50.974;4.968;2022-07-23T10:18:27;26.10;99.90
9975;DHT22;5028;50.974;4.968;2022-07-23T10:20:56;26.40;99.90
9975;DHT22;5028;50.974;4.968;2022-07-23T10:23:36;26.60;99.90
9975;DHT22;5028;50.974;4.968;2022-07-23T10:26:11;26.70;99.90
9975;DHT22;5028;50.974;4.968;2022-07-23T10:29:01;26.90;99.90
9975;DHT22;5028;50.974;4.968;2022-07-23T10:31:39;27.10;99.90
9975;DHT22;5028;50.974;4.968;2022-07-23T10:34:35;27.50;99.90
9975;DHT22;5028;50.974;4.968;2022-07-23T10:37:14;28.00;99.90
9975;DHT22;5028;50.974;4.968;2022-07-23T10:40:08;27.50;99.90
9975;DHT22;5028;50.974;4.968;2022-07-23T10:42:37;26.80;99.90
9975;DHT22;5028;50.974;4.968;2022-07-23T10:45:23;26.50;99.90
9975;DHT22;5028;50.974;4.968;2022-07-23T10:47:53;26.60;99.90
9975;DHT22;5028;50.974;4.968;2022-07-23T10:50:30;26.70;99.90
9975;DHT22;5028;50.974;4.968;2022-07-23T10:53:16;26.60;99.90
9975;DHT22;5028;50.974;4.968;2022-07-23T10:55:52;26.20;99.60
9975;DHT22;5028;50.974;4.968;2022-07-23T10:58:22;26.20;99.80
9975;DHT22;5028;50.974;4.968;2022-07-23T11:00:57;26.10;99.90
9975;DHT22;5028;50.974;4.968;2022-07-23T11:03:30;26.10;99.90
9975;DHT22;5028;50.974;4.968;2022-07-23T11:06:06;26.40;99.60
9975;DHT22;5028;50.974;4.968;2022-07-23T11:08:42;26.50;98.70
9975;DHT22;5028;50.974;4.968;2022-07-23T11:11:11;26.80;98.50
9975;DHT22;5028;50.974;4.968;2022-07-23T11:13:48;26.50;99.40
9975;DHT22;5028;50.974;4.968;2022-07-23T11:16:19;27.10;99.40
9975;DHT22;5028;50.974;4.968;2022-07-23T11:18:57;27.60;99.30
9975;DHT22;5028;50.974;4.968;2022-07-23T11:21:43;28.00;99.50
9975;DHT22;5028;50.974;4.968;2022-07-23T11:24:21;28.20;99.20
9975;DHT22;5028;50.974;4.968;2022-07-23T11:27:00;28.60;98.70
9975;DHT22;5028;50.974;4.968;2022-07-23T11:29:46;29.20;98.80
9975;DHT22;5028;50.974;4.968;2022-07-23T11:32:23;28.70;96.70
9975;DHT22;5028;50.974;4.968;2022-07-23T11:34:58;27.80;98.40
9975;DHT22;5028;50.974;4.968;2022-07-23T11:37:35;28.20;98.10
9975;DHT22;5028;50.974;4.968;2022-07-23T11:40:13;27.70;97.90
9975;DHT22;5028;50.974;4.968;2022-07-23T11:42:52;27.60;97.70
9975;DHT22;5028;50.974;4.968;2022-07-23T11:45:32;27.40;98.60
9975;DHT22;5028;50.974;4.968;2022-07-23T11:48:17;27.90;99.40
9975;DHT22;5028;50.974;4.968;2022-07-23T11:50:53;28.60;97.50
9975;DHT22;5028;50.974;4.968;2022-07-23T11:53:22;28.50;97.20
9975;DHT22;5028;50.974;4.968;2022-07-23T11:56:04;28.70;97.40
9975;DHT22;5028;50.974;4.968;2022-07-23T11:58:33;29.00;96.90
9975;DHT22;5028;50.974;4.968;2022-07-23T12:01:09;28.80;96.60
9975;DHT22;5028;50.974;4.968;2022-07-23T12:03:49;28.50;97.60
9975;DHT22;5028;50.974;4.968;2022-07-23T12:06:24;28.70;97.40
9975;DHT22;5028;50.974;4.968;2022-07-23T12:08:52;29.30;98.30
9975;DHT22;5028;50.974;4.968;2022-07-23T12:11:28;29.80;96.00
9975;DHT22;5028;50.974;4.968;2022-07-23T12:13:57;29.80;95.80
9975;DHT22;5028;50.974;4.968;2022-07-23T12:16:33;29.50;95.00
9975;DHT22;5028;50.974;4.968;2022-07-23T12:19:01;28.80;95.00
9975;DHT22;5028;50.974;4.968;2022-07-23T12:21:36;28.10;96.00
9975;DHT22;5028;50.974;4.968;2022-07-23T12:24:07;28.60;97.20
9975;DHT22;5028;50.974;4.968;2022-07-23T12:27:07;29.30;96.90
9975;DHT22;5028;50.974;4.968;2022-07-23T12:29:36;30.30;95.70
9975;DHT22;5028;50.974;4.968;2022-07-23T12:32:20;30.50;94.10
9975;DHT22;5028;50.974;4.968;2022-07-23T12:35:03;29.80;94.70
9975;DHT22;5028;50.974;4.968;2022-07-23T12:37:39;29.90;95.10
9975;DHT22;5028;50.974;4.968;2022-07-23T12:40:23;30.50;94.40
9975;DHT22;5028;50.974;4.968;2022-07-23T12:43:02;31.00;94.60
9975;DHT22;5028;50.974;4.968;2022-07-23T12:45:43;31.00;94.10
9975;DHT22;5028;50.974;4.968;2022-07-23T12:48:21;31.40;93.00
9975;DHT22;5028;50.974;4.968;2022-07-23T12:50:55;31.30;93.20
9975;DHT22;5028;50.974;4.968;2022-07-23T12:53:33;31.30;93.00
9975;DHT22;5028;50.974;4.968;2022-07-23T12:56:06;31.10;94.20
9975;DHT22;5028;50.974;4.968;2022-07-23T12:58:48;31.00;92.80
9975;DHT22;5028;50.974;4.968;2022-07-23T13:01:28;30.40;93.10
9975;DHT22;5028;50.974;4.968;2022-07-23T13:04:06;30.20;93.80
9975;DHT22;5028;50.974;4.968;2022-07-23T13:06:41;29.90;93.80
9975;DHT22;5028;50.974;4.968;2022-07-23T13:09:19;29.50;93.50
9975;DHT22;5028;50.974;4.968;2022-07-23T13:11:59;29.20;93.60
9975;DHT22;5028;50.974;4.968;2022-07-23T13:14:29;28.60;94.90
9975;DHT22;5028;50.974;4.968;2022-07-23T13:17:06;28.80;94.60
9975;DHT22;5028;50.974;4.968;2022-07-23T13:19:35;29.50;94.50
9975;DHT22;5028;50.974;4.968;2022-07-23T13:22:13;29.40;93.20
9975;DHT22;5028;50.974;4.968;2022-07-23T13:24:41;29.10;93.90
9975;DHT22;5028;50.974;4.968;2022-07-23T13:27:16;29.10;93.50
9975;DHT22;5028;50.974;4.968;2022-07-23T13:29:49;29.20;94.20
9975;DHT22;5028;50.974;4.968;2022-07-23T13:32:24;29.60;93.60
9975;DHT22;5028;50.974;4.968;2022-07-23T13:34:52;29.70;94.10
9975;DHT22;5028;50.974;4.968;2022-07-23T13:37:23;30.30;94.40
9975;DHT22;5028;50.974;4.968;2022-07-23T13:39:58;30.90;93.80
9975;DHT22;5028;50.974;4.968;2022-07-23T13:42:26;31.10;92.30
9975;DHT22;5028;50.974;4.968;2022-07-23T13:45:05;30.90;92.50
9975;DHT22;5028;50.974;4.968;2022-07-23T13:47:54;31.10;92.70
9975;DHT22;5028;50.974;4.968;2022-07-23T13:50:22;31.20;92.60
9975;DHT22;5028;50.974;4.968;2022-07-23T13:53:01;30.40;91.50
9975;DHT22;5028;50.974;4.968;2022-07-23T13:55:33;29.10;93.10
9975;DHT22;5028;50.974;4.968;2022-07-23T13:58:15;28.90;93.80
9975;DHT22;5028;50.974;4.968;2022-07-23T14:00:46;28.60;94.30
9975;DHT22;5028;50.974;4.968;2022-07-23T14:03:24;28.70;94.20
9975;DHT22;5028;50.974;4.968;2022-07-23T14:05:53;28.80;94.40
9975;DHT22;5028;50.974;4.968;2022-07-23T14:08:28;29.10;94.70
9975;DHT22;5028;50.974;4.968;2022-07-23T14:10:56;29.40;94.00
9975;DHT22;5028;50.974;4.968;2022-07-23T14:13:33;28.80;94.10
9975;DHT22;5028;50.974;4.968;2022-07-23T14:16:04;28.30;95.10
9975;DHT22;5028;50.974;4.968;2022-07-23T14:18:39;28.20;94.70
9975;DHT22;5028;50.974;4.968;2022-07-23T14:21:07;28.20;94.70
9975;DHT22;5028;50.974;4.968;2022-07-23T14:23:42;28.20;94.50
9975;DHT22;5028;50.974;4.968;2022-07-23T14:26:10;28.40;95.20
9975;DHT22;5028;50.974;4.968;2022-07-23T14:28:46;28.70;95.60
9975;DHT22;5028;50.974;4.968;2022-07-23T14:31:16;29.30;95.20
9975;DHT22;5028;50.974;4.968;2022-07-23T14:33:51;29.30;93.90
9975;DHT22;5028;50.974;4.968;2022-07-23T14:36:20;29.50;94.80
9975;DHT22;5028;50.974;4.968;2022-07-23T14:38:48;29.80;94.40
9975;DHT22;5028;50.974;4.968;2022-07-23T14:41:24;29.80;93.20
9975;DHT22;5028;50.974;4.968;2022-07-23T14:43:59;29.10;94.50
9975;DHT22;5028;50.974;4.968;2022-07-23T14:46:29;28.80;94.90
9975;DHT22;5028;50.974;4.968;2022-07-23T14:49:10;28.60;94.50
9975;DHT22;5028;50.974;4.968;2022-07-23T14:51:38;28.50;95.10
9975;DHT22;5028;50.974;4.968;2022-07-23T14:54:15;28.50;95.00
9975;DHT22;5028;50.974;4.968;2022-07-23T14:56:44;28.30;94.70
9975;DHT22;5028;50.974;4.968;2022-07-23T14:59:19;28.00;95.10
9975;DHT22;5028;50.974;4.968;2022-07-23T15:01:49;27.80;95.20
9975;DHT22;5028;50.974;4.968;2022-07-23T15:04:24;27.80;95.50
9975;DHT22;5028;50.974;4.968;2022-07-23T15:07:04;27.50;95.50
9975;DHT22;5028;50.974;4.968;2022-07-23T15:09:38;27.10;96.40
9975;DHT22;5028;50.974;4.968;2022-07-23T15:12:08;27.20;96.80
9975;DHT22;5028;50.974;4.968;2022-07-23T15:14:42;27.60;96.30
9975;DHT22;5028;50.974;4.968;2022-07-23T15:17:17;27.70;95.70
9975;DHT22;5028;50.974;4.968;2022-07-23T15:19:52;27.30;96.30
9975;DHT22;5028;50.974;4.968;2022-07-23T15:22:21;27.20;96.50
9975;DHT22;5028;50.974;4.968;2022-07-23T15:24:55;27.10;96.50
9975;DHT22;5028;50.974;4.968;2022-07-23T15:27:23;26.80;96.40
9975;DHT22;5028;50.974;4.968;2022-07-23T15:29:59;26.70;96.70
9975;DHT22;5028;50.974;4.968;2022-07-23T15:32:28;26.90;96.40
9975;DHT22;5028;50.974;4.968;2022-07-23T15:35:05;26.90;96.60
9975;DHT22;5028;50.974;4.968;2022-07-23T15:37:35;27.00;96.90
9975;DHT22;5028;50.974;4.968;2022-07-23T15:40:12;27.10;96.90
9975;DHT22;5028;50.974;4.968;2022-07-23T15:42:40;27.10;96.10
9975;DHT22;5028;50.974;4.968;2022-07-23T15:45:22;27.10;96.50
9975;DHT22;5028;50.974;4.968;2022-07-23T15:47:58;27.00;96.10
9975;DHT22;5028;50.974;4.968;2022-07-23T15:50:33;27.00;96.30
9975;DHT22;5028;50.974;4.968;2022-07-23T15:53:02;26.90;96.40
9975;DHT22;5028;50.974;4.968;2022-07-23T15:55:41;26.90;96.60
9975;DHT22;5028;50.974;4.968;2022-07-23T15:58:12;26.90;97.20
9975;DHT22;5028;50.974;4.968;2022-07-23T16:00:50;26.90;96.40
9975;DHT22;5028;50.974;4.968;2022-07-23T16:03:20;27.00;96.50
9975;DHT22;5028;50.974;4.968;2022-07-23T16:05:54;27.10;96.70
9975;DHT22;5028;50.974;4.968;2022-07-23T16:08:23;27.10;97.10
9975;DHT22;5028;50.974;4.968;2022-07-23T16:10:58;27.00;96.70
9975;DHT22;5028;50.974;4.968;2022-07-23T16:13:27;27.00;97.20
9975;DHT22;5028;50.974;4.968;2022-07-23T16:16:02;26.90;96.90
9975;DHT22;5028;50.974;4.968;2022-07-23T16:18:32;26.80;96.70
9975;DHT22;5028;50.974;4.968;2022-07-23T16:21:07;26.90;96.90
9975;DHT22;5028;50.974;4.968;2022-07-23T16:23:42;26.90;97.10
9975;DHT22;5028;50.974;4.968;2022-07-23T16:26:18;27.00;96.80
9975;DHT22;5028;50.974;4.968;2022-07-23T16:28:49;27.10;97.00
9975;DHT22;5028;50.974;4.968;2022-07-23T16:31:23;27.20;96.60
9975;DHT22;5028;50.974;4.968;2022-07-23T16:33:54;27.20;97.30
9975;DHT22;5028;50.974;4.968;2022-07-23T16:36:29;27.10;96.30
9975;DHT22;5028;50.974;4.968;2022-07-23T16:38:57;26.90;96.90
9975;DHT22;5028;50.974;4.968;2022-07-23T16:41:32;26.70;96.80
9975;DHT22;5028;50.974;4.968;2022-07-23T16:44:00;26.60;96.90
9975;DHT22;5028;50.974;4.968;2022-07-23T16:46:42;26.60;96.70
9975;DHT22;5028;50.974;4.968;2022-07-23T16:49:12;26.60;97.00